Time;durP1;ratioP1;P1;durP2;ratioP2;P2;SDS_P1;SDS_P2;PMS_P1;PMS_P2;Temp;Humidity;BMP_temperature;BMP_pressure;BME280_temperature;BME280_humidity;BME280_pressure;Samples;Min_cycle;Max_cycle;Signal;HPM_P1;HPM_P2
2023/06/04 00:02:34;;;;;;;0.80;0.80;;;22.50;51.00;;;;;;222160;1269;22512;-57
2023/06/04 00:07:38;;;;;;;1.10;1.00;;;22.40;51.10;;;;;;222140;1269;22663;-51
2023/06/04 00:12:43;;;;;;;0.90;0.60;;;22.40;51.00;;;;;;222588;1266;22512;-52
2023/06/04 00:17:47;;;;;;;0.80;0.80;;;22.50;51.00;;;;;;222100;1269;22521;-53
2023/06/04 00:22:51;;;;;;;0.80;0.80;;;22.30;51.20;;;;;;222308;1267;23102;-52
2023/06/04 00:27:55;;;;;;;0.80;0.80;;;22.30;51.30;;;;;;222016;1247;22762;-54
2023/06/04 00:33:00;;;;;;;1.00;0.90;;;22.30;51.30;;;;;;222505;1264;24391;-57
2023/06/04 00:38:05;;;;;;;0.90;0.90;;;22.30;51.30;;;;;;222443;1257;22749;-55
2023/06/04 00:43:10;;;;;;;0.60;0.60;;;22.30;51.30;;;;;;222514;1268;22516;-50
2023/06/04 00:48:14;;;;;;;0.70;0.70;;;22.30;51.30;;;;;;222618;1268;22515;-52
2023/06/04 00:53:20;;;;;;;0.90;0.90;;;22.30;51.60;;;;;;222436;1246;22692;-50
2023/06/04 00:58:24;;;;;;;1.60;1.00;;;22.30;51.20;;;;;;222539;1266;22774;-52
2023/06/04 01:03:31;;;;;;;1.20;1.10;;;22.20;51.10;;;;;;222654;1267;25338;-53
2023/06/04 01:08:37;;;;;;;0.50;0.50;;;22.20;51.10;;;;;;222510;1268;22513;-54
2023/06/04 01:13:41;;;;;;;1.00;0.80;;;22.20;51.50;;;;;;222486;1268;24311;-52
2023/06/04 01:18:47;;;;;;;1.60;1.00;;;22.30;51.10;;;;;;222450;1268;24082;-51
2023/06/04 01:23:58;;;;;;;0.60;0.60;;;22.20;51.10;;;;;;222716;1262;22616;-53
2023/06/04 01:29:03;;;;;;;0.80;0.80;;;22.20;51.10;;;;;;222459;1266;25377;-52
2023/06/04 01:34:08;;;;;;;0.90;0.90;;;22.20;51.00;;;;;;222165;1269;24189;-51
2023/06/04 01:39:12;;;;;;;1.00;0.90;;;22.10;51.00;;;;;;222502;1269;24260;-51
2023/06/04 01:44:16;;;;;;;0.70;0.70;;;22.20;51.10;;;;;;222220;1269;22531;-52
2023/06/04 01:49:21;;;;;;;0.90;0.90;;;22.20;51.40;;;;;;222121;1269;22511;-54
2023/06/04 01:54:25;;;;;;;0.80;0.80;;;22.20;51.00;;;;;;222090;1267;22507;-54
2023/06/04 01:59:31;;;;;;;0.90;0.90;;;22.10;51.10;;;;;;222169;1269;22504;-56
2023/06/04 02:04:36;;;;;;;1.20;0.80;;;22.10;51.00;;;;;;222333;1269;22604;-57
2023/06/04 02:09:41;;;;;;;1.00;0.80;;;22.10;51.10;;;;;;222381;1269;24250;-52
2023/06/04 02:14:45;;;;;;;0.80;0.80;;;22.10;51.10;;;;;;222176;1268;253212;-53
2023/06/04 02:19:50;;;;;;;0.80;0.80;;;22.00;51.20;;;;;;222281;1269;23913;-53
2023/06/04 02:24:55;;;;;;;1.20;1.10;;;22.00;51.30;;;;;;222412;1269;24311;-53
2023/06/04 02:29:59;;;;;;;0.70;0.70;;;22.00;51.20;;;;;;222130;1269;24066;-53
2023/06/04 02:35:04;;;;;;;1.00;0.90;;;22.00;51.70;;;;;;222421;1264;22514;-52
2023/06/04 02:40:09;;;;;;;0.90;0.80;;;22.00;51.30;;;;;;222385;1269;22530;-51
2023/06/04 02:45:14;;;;;;;0.90;0.90;;;22.00;51.10;;;;;;222287;1269;22692;-51
2023/06/04 02:50:19;;;;;;;0.80;0.80;;;21.90;51.10;;;;;;222496;1267;25211;-53
2023/06/04 02:55:23;;;;;;;0.70;0.70;;;21.90;51.30;;;;;;222365;1264;23931;-54
2023/06/04 03:00:27;;;;;;;0.80;0.80;;;21.90;51.30;;;;;;222364;1268;24401;-56
2023/06/04 03:05:32;;;;;;;1.20;0.80;;;21.90;51.20;;;;;;222461;1268;22534;-52
2023/06/04 03:10:37;;;;;;;0.90;0.90;;;21.90;51.30;;;;;;222494;1246;22504;-50
2023/06/04 03:15:41;;;;;;;0.90;0.90;;;21.90;51.40;;;;;;222761;1268;22669;-52
2023/06/04 03:20:45;;;;;;;1.20;1.00;;;21.80;51.20;;;;;;222596;1268;23898;-49
2023/06/04 03:25:50;;;;;;;3.50;0.80;;;21.80;51.20;;;;;;222626;1268;26235;-53
2023/06/04 03:30:54;;;;;;;0.90;0.90;;;21.80;51.30;;;;;;222560;1268;25231;-52
2023/06/04 03:36:02;;;;;;;1.10;0.80;;;21.80;51.30;;;;;;222475;1268;22570;-51
2023/06/04 03:41:06;;;;;;;0.80;0.80;;;21.80;51.50;;;;;;222685;1268;25210;-54
2023/06/04 03:46:11;;;;;;;0.70;0.70;;;21.80;51.40;;;;;;222448;1268;22511;-52
2023/06/04 03:51:15;;;;;;;1.10;1.00;;;21.80;51.80;;;;;;222711;1267;22538;-50
2023/06/04 03:56:21;;;;;;;1.00;0.90;;;21.80;51.50;;;;;;222523;1265;25391;-52
2023/06/04 04:01:26;;;;;;;0.90;0.80;;;21.70;51.60;;;;;;222781;1261;22554;-52
2023/06/04 04:06:32;;;;;;;0.60;0.60;;;21.70;51.70;;;;;;222460;1268;25313;-52
2023/06/04 04:11:36;;;;;;;1.30;1.20;;;21.70;51.40;;;;;;222555;1268;24179;-56
2023/06/04 04:16:40;;;;;;;1.00;1.00;;;21.70;51.40;;;;;;222469;1268;25326;-50
2023/06/04 04:21:48;;;;;;;0.80;0.80;;;21.70;51.30;;;;;;222451;1267;22524;-53
2023/06/04 04:26:54;;;;;;;1.10;1.00;;;21.70;51.40;;;;;;222490;1268;23020;-52
2023/06/04 04:32:00;;;;;;;1.00;0.90;;;21.70;51.40;;;;;;222598;1268;25344;-53
2023/06/04 04:37:08;;;;;;;0.90;0.90;;;21.70;51.40;;;;;;222881;1268;23011;-51
2023/06/04 04:42:13;;;;;;;1.10;1.00;;;21.70;51.40;;;;;;222788;1260;22523;-52
2023/06/04 04:47:17;;;;;;;0.80;0.80;;;21.70;51.70;;;;;;222976;1262;24093;-53
2023/06/04 04:52:22;;;;;;;0.90;0.90;;;21.70;51.40;;;;;;222651;1267;22510;-50
2023/06/04 04:57:26;;;;;;;0.90;0.90;;;21.70;51.70;;;;;;222491;1268;24178;-52
2023/06/04 05:02:31;;;;;;;0.80;0.80;;;21.70;51.40;;;;;;222524;1268;23952;-55
2023/06/04 05:07:35;;;;;;;0.80;0.80;;;21.70;51.30;;;;;;222432;1268;24199;-51
2023/06/04 05:12:53;;;;;;;0.90;0.90;;;21.70;51.30;;;;;;222511;1268;24187;-50
2023/06/04 05:18:00;;;;;;;0.90;0.90;;;21.70;51.30;;;;;;222827;1268;22522;-56
2023/06/04 05:23:06;;;;;;;1.10;1.00;;;21.70;51.50;;;;;;222618;1262;23016;-51
2023/06/04 05:28:12;;;;;;;1.30;1.10;;;21.80;51.20;;;;;;222562;1256;22520;-51
2023/06/04 05:33:18;;;;;;;0.90;0.90;;;21.80;51.20;;;;;;222461;1268;25290;-53
2023/06/04 05:38:30;;;;;;;1.20;1.10;;;21.80;51.20;;;;;;222685;1268;22603;-54
2023/06/04 05:43:38;;;;;;;0.90;0.90;;;21.80;51.10;;;;;;222535;1266;22509;-51
2023/06/04 05:48:43;;;;;;;1.20;1.10;;;21.80;51.10;;;;;;222591;1264;24215;-50
2023/06/04 05:53:49;;;;;;;0.90;0.90;;;21.80;51.10;;;;;;222491;1268;22522;-52
2023/06/04 05:58:53;;;;;;;1.00;1.00;;;21.80;51.00;;;;;;222500;1268;22609;-53
2023/06/04 06:03:58;;;;;;;1.20;1.10;;;21.80;51.00;;;;;;222496;1249;22514;-53
2023/06/04 06:09:05;;;;;;;1.50;1.00;;;21.80;51.30;;;;;;222496;1246;22643;-52
2023/06/04 06:14:10;;;;;;;1.10;1.00;;;21.80;50.90;;;;;;222497;1268;22501;-53
2023/06/04 06:19:14;;;;;;;1.20;1.10;;;21.80;51.00;;;;;;222522;1268;22642;-51
2023/06/04 06:24:19;;;;;;;1.70;1.00;;;21.80;51.30;;;;;;222431;1268;22521;-52
2023/06/04 06:29:23;;;;;;;1.00;1.00;;;21.80;51.20;;;;;;222596;1268;25380;-52
2023/06/04 06:34:28;;;;;;;1.00;1.00;;;21.80;50.90;;;;;;222306;1268;22527;-54
2023/06/04 06:39:32;;;;;;;1.10;1.00;;;21.90;50.70;;;;;;222412;1268;22704;-52
2023/06/04 06:44:36;;;;;;;0.70;0.70;;;21.90;50.80;;;;;;222412;1268;22855;-53
2023/06/04 06:49:41;;;;;;;1.10;1.00;;;21.90;50.70;;;;;;222433;1268;24183;-52
2023/06/04 06:54:46;;;;;;;2.40;1.10;;;21.90;50.50;;;;;;222545;1268;22508;-55
2023/06/04 06:59:51;;;;;;;1.20;0.90;;;21.90;50.50;;;;;;222638;1268;24366;-50
2023/06/04 07:04:55;;;;;;;1.30;1.20;;;22.00;50.40;;;;;;222635;1268;25301;-53
2023/06/04 07:10:00;;;;;;;1.20;1.10;;;22.00;50.30;;;;;;222359;1268;25569;-58
2023/06/04 07:15:06;;;;;;;1.10;1.00;;;22.00;50.30;;;;;;222488;1267;22504;-52
2023/06/04 07:20:10;;;;;;;1.10;0.90;;;22.10;50.50;;;;;;222607;1268;22689;-54
2023/06/04 07:25:16;;;;;;;0.90;0.90;;;22.00;50.30;;;;;;222597;1268;22564;-50
2023/06/04 07:30:20;;;;;;;0.80;0.80;;;22.00;50.80;;;;;;222319;1262;24011;-54
2023/06/04 07:35:24;;;;;;;1.00;0.90;;;22.00;50.50;;;;;;222620;1269;22594;-51
2023/06/04 07:40:29;;;;;;;1.20;1.10;;;22.00;50.50;;;;;;222094;1269;22467;-53
2023/06/04 07:45:33;;;;;;;0.90;0.90;;;22.10;50.70;;;;;;222203;1269;22508;-52
2023/06/04 07:50:40;;;;;;;1.10;1.00;;;22.10;50.30;;;;;;222164;1269;24737;-52
2023/06/04 07:55:44;;;;;;;1.20;1.10;;;22.10;50.20;;;;;;222252;1268;22508;-51
2023/06/04 08:00:49;;;;;;;0.90;0.90;;;22.20;51.00;;;;;;222400;1267;22510;-53
2023/06/04 08:05:53;;;;;;;1.00;1.00;;;22.20;50.40;;;;;;222379;1269;22731;-52
2023/06/04 08:10:57;;;;;;;0.80;0.80;;;22.20;50.60;;;;;;222114;1269;22613;-49
2023/06/04 08:16:01;;;;;;;1.20;1.10;;;22.20;50.10;;;;;;222251;1262;22637;-54
2023/06/04 08:21:09;;;;;;;1.30;1.20;;;22.20;50.20;;;;;;222171;1268;22603;-52
2023/06/04 08:26:13;;;;;;;1.00;0.90;;;22.30;50.60;;;;;;222371;1269;25210;-52
2023/06/04 08:31:18;;;;;;;0.80;0.80;;;22.30;50.10;;;;;;222443;1268;22542;-57
2023/06/04 08:36:22;;;;;;;1.00;1.00;;;22.30;50.80;;;;;;222566;1266;25425;-52
2023/06/04 08:41:38;;;;;;;1.20;1.00;;;22.30;50.10;;;;;;222229;1246;22614;-55
2023/06/04 08:46:44;;;;;;;0.90;0.90;;;22.30;50.10;;;;;;222441;1268;25603;-51
2023/06/04 08:51:48;;;;;;;0.80;0.80;;;22.30;50.10;;;;;;222618;1268;22530;-54
2023/06/04 08:56:57;;;;;;;1.10;1.00;;;22.40;50.10;;;;;;222636;1266;24203;-54
2023/06/04 09:02:02;;;;;;;1.00;0.80;;;22.40;50.00;;;;;;221191;1274;24301;-50
2023/06/04 09:07:08;;;;;;;1.70;0.60;;;22.40;50.00;;;;;;221233;1255;25425;-51
2023/06/04 09:12:19;;;;;;;1.00;1.00;;;22.40;50.10;;;;;;221337;1251;25627;-52
2023/06/04 09:17:24;;;;;;;0.50;0.50;;;22.50;50.10;;;;;;221428;1268;24244;-52
2023/06/04 09:22:33;;;;;;;1.20;1.10;;;22.50;50.10;;;;;;222714;1263;22634;-53
2023/06/04 09:27:42;;;;;;;1.00;1.00;;;22.40;50.10;;;;;;222783;1268;22966;-54
2023/06/04 09:32:45;;;;;;;1.00;0.80;;;22.40;50.00;;;;;;222394;1268;24411;-55
2023/06/04 09:37:57;;;;;;;0.80;0.80;;;22.50;50.00;;;;;;222660;1269;24817;-53
2023/06/04 09:43:03;;;;;;;1.20;1.10;;;22.50;50.00;;;;;;222228;1268;24280;-52
2023/06/04 09:48:07;;;;;;;1.00;1.00;;;22.50;50.00;;;;;;222383;1269;25419;-53
2023/06/04 09:53:25;;;;;;;0.90;0.90;;;22.50;50.10;;;;;;221969;1268;25509;-49
2023/06/04 09:58:30;;;;;;;0.90;0.90;;;22.50;49.90;;;;;;222070;1268;25407;-55
2023/06/04 10:03:36;;;;;;;0.70;0.70;;;22.60;49.90;;;;;;222248;1267;22519;-52
2023/06/04 10:08:42;;;;;;;1.20;1.10;;;22.60;49.80;;;;;;222235;1253;22527;-52
2023/06/04 10:14:25;;;;;;;0.80;0.80;;;22.70;49.80;;;;;;222240;1267;24351;-52
2023/06/04 10:19:31;;;;;;;0.80;0.80;;;22.70;49.80;;;;;;222098;1268;22512;-55
2023/06/04 10:24:35;;;;;;;0.70;0.70;;;22.70;49.70;;;;;;222435;1265;22574;-53
2023/06/04 10:29:40;;;;;;;1.20;1.00;;;22.70;50.10;;;;;;222414;1269;22599;-56
2023/06/04 10:34:44;;;;;;;0.80;0.80;;;22.70;49.80;;;;;;222345;1269;22521;-52
2023/06/04 10:39:53;;;;;;;0.50;0.50;;;22.80;49.70;;;;;;222334;1269;22514;-54
2023/06/04 10:44:57;;;;;;;0.90;0.90;;;22.80;49.70;;;;;;222222;1268;22598;-50
2023/06/04 10:50:12;;;;;;;1.50;1.40;;;22.80;49.70;;;;;;222337;1269;24258;-53
2023/06/04 10:55:16;;;;;;;0.60;0.60;;;22.90;49.70;;;;;;222337;1269;22525;-53
2023/06/04 11:00:21;;;;;;;1.30;1.00;;;22.90;49.60;;;;;;222182;1269;22651;-56
2023/06/04 11:05:36;;;;;;;0.90;0.90;;;22.90;49.60;;;;;;222282;1269;24338;-52
2023/06/04 11:10:45;;;;;;;0.90;0.90;;;22.90;49.50;;;;;;221930;1258;24174;-54
2023/06/04 11:15:49;;;;;;;1.00;0.90;;;22.90;49.50;;;;;;222178;1267;24167;-54
2023/06/04 11:21:01;;;;;;;0.90;0.90;;;23.00;49.40;;;;;;222313;1269;22516;-52
2023/06/04 11:26:06;;;;;;;0.80;0.80;;;23.00;49.50;;;;;;222214;1269;22639;-52
2023/06/04 11:31:10;;;;;;;1.10;1.00;;;23.00;49.60;;;;;;222277;1268;22517;-56
2023/06/04 11:36:29;;;;;;;0.80;0.80;;;23.00;49.90;;;;;;222392;1268;22514;-53
2023/06/04 11:41:35;;;;;;;1.20;1.20;;;23.10;49.50;;;;;;222672;1250;25249;-51
2023/06/04 11:46:44;;;;;;;0.80;0.80;;;23.10;49.70;;;;;;222365;1266;24450;-53
2023/06/04 11:51:49;;;;;;;0.90;0.80;;;23.00;49.90;;;;;;222619;1268;22933;-55
2023/06/04 11:56:53;;;;;;;0.80;0.80;;;23.10;49.60;;;;;;222390;1268;22522;-58
2023/06/04 12:01:58;;;;;;;0.70;0.70;;;23.10;50.00;;;;;;222559;1268;24223;-52
2023/06/04 12:07:05;;;;;;;1.00;0.80;;;23.10;49.60;;;;;;222600;1268;24195;-52
2023/06/04 12:12:09;;;;;;;0.70;0.70;;;23.10;49.40;;;;;;222505;1268;23077;-53
2023/06/04 12:17:13;;;;;;;1.20;1.10;;;23.10;49.40;;;;;;222638;1266;22531;-55
2023/06/04 12:22:18;;;;;;;1.30;1.20;;;23.20;49.50;;;;;;222653;1265;22531;-54
2023/06/04 12:27:25;;;;;;;0.90;0.90;;;23.20;49.80;;;;;;222419;1266;22586;-54
2023/06/04 12:32:29;;;;;;;0.60;0.60;;;23.30;49.80;;;;;;222342;1268;22955;-59
2023/06/04 12:37:33;;;;;;;0.80;0.80;;;23.20;49.50;;;;;;222291;1266;22640;-54
2023/06/04 12:42:38;;;;;;;0.90;0.90;;;23.30;49.50;;;;;;222423;1269;22504;-52
2023/06/04 12:47:42;;;;;;;0.90;0.80;;;23.30;49.50;;;;;;222076;1269;22524;-55
2023/06/04 12:52:46;;;;;;;0.90;0.90;;;23.30;49.50;;;;;;222201;1269;24242;-54
2023/06/04 12:57:50;;;;;;;1.00;0.90;;;23.30;49.50;;;;;;222452;1269;23878;-53
2023/06/04 13:02:55;;;;;;;0.70;0.70;;;23.30;49.60;;;;;;221990;1269;22514;-51
2023/06/04 13:08:01;;;;;;;1.00;0.90;;;23.30;49.60;;;;;;222334;1245;25012;-53
2023/06/04 13:13:05;;;;;;;1.10;1.00;;;23.30;49.50;;;;;;222275;1269;25495;-55
2023/06/04 13:18:11;;;;;;;1.10;1.00;;;23.30;49.50;;;;;;222110;1264;22507;-52
2023/06/04 13:23:16;;;;;;;0.80;0.80;;;23.40;49.60;;;;;;222232;1266;24187;-53
2023/06/04 13:28:20;;;;;;;0.70;0.70;;;23.30;49.60;;;;;;222171;1269;24317;-52
2023/06/04 13:33:24;;;;;;;0.80;0.80;;;23.30;49.60;;;;;;222612;1267;24580;-54
2023/06/04 13:38:29;;;;;;;0.70;0.70;;;23.30;49.80;;;;;;222566;1268;22508;-53
2023/06/04 13:43:33;;;;;;;0.90;0.80;;;23.40;49.60;;;;;;222604;1268;22645;-53
2023/06/04 13:48:37;;;;;;;0.60;0.60;;;23.40;49.80;;;;;;222617;1266;22551;-51
2023/06/04 13:53:41;;;;;;;0.70;0.70;;;23.40;49.80;;;;;;222505;1268;22519;-54
2023/06/04 13:58:45;;;;;;;0.70;0.70;;;23.40;49.70;;;;;;222489;1268;22527;-50
2023/06/04 14:03:49;;;;;;;0.70;0.70;;;23.40;49.80;;;;;;222561;1266;22508;-57
2023/06/04 14:08:54;;;;;;;0.60;0.60;;;23.40;50.00;;;;;;222411;1268;22514;-54
2023/06/04 14:13:59;;;;;;;1.20;0.90;;;23.40;49.90;;;;;;222332;1268;185422;-57
2023/06/04 14:19:04;;;;;;;0.70;0.70;;;23.40;49.80;;;;;;222625;1266;22508;-50
2023/06/04 14:24:08;;;;;;;0.50;0.50;;;23.40;49.90;;;;;;222580;1268;22941;-52
2023/06/04 14:29:13;;;;;;;0.50;0.50;;;23.40;50.20;;;;;;222459;1268;24166;-52
2023/06/04 14:34:17;;;;;;;0.70;0.70;;;23.40;50.00;;;;;;222135;1268;23887;-53
2023/06/04 14:39:21;;;;;;;0.70;0.60;;;23.40;50.10;;;;;;222402;1269;22640;-53
2023/06/04 14:44:25;;;;;;;0.70;0.70;;;23.40;50.00;;;;;;222296;1268;22517;-53
2023/06/04 14:49:29;;;;;;;0.70;0.70;;;23.40;50.10;;;;;;222161;1269;22565;-53
2023/06/04 14:54:34;;;;;;;0.70;0.70;;;23.40;50.10;;;;;;222130;1268;22526;-52
2023/06/04 14:59:39;;;;;;;0.70;0.70;;;23.40;50.10;;;;;;222276;1269;22632;-52
2023/06/04 15:04:44;;;;;;;0.60;0.60;;;23.40;50.50;;;;;;222192;1268;25179;-55
2023/06/04 15:09:48;;;;;;;0.90;0.60;;;23.40;50.30;;;;;;222120;1269;25316;-52
2023/06/04 15:14:52;;;;;;;0.60;0.60;;;23.40;50.30;;;;;;221997;1269;23955;-55
2023/06/04 15:19:57;;;;;;;0.60;0.60;;;23.40;50.30;;;;;;222162;1269;22623;-53
2023/06/04 15:25:02;;;;;;;0.50;0.50;;;23.40;50.30;;;;;;222601;1269;24634;-54
2023/06/04 15:30:07;;;;;;;0.80;0.60;;;23.40;50.30;;;;;;222229;1266;22817;-53
2023/06/04 15:35:11;;;;;;;0.60;0.60;;;23.30;50.30;;;;;;222372;1268;24206;-53
2023/06/04 15:40:15;;;;;;;0.60;0.60;;;23.40;50.90;;;;;;222560;1268;24193;-51
2023/06/04 15:45:24;;;;;;;0.70;0.70;;;23.40;50.30;;;;;;222324;1268;22643;-53
2023/06/04 15:50:28;;;;;;;0.70;0.70;;;23.40;50.30;;;;;;222400;1256;24188;-54
2023/06/04 15:55:32;;;;;;;0.70;0.70;;;23.40;50.40;;;;;;222593;1268;22516;-52
2023/06/04 16:00:36;;;;;;;0.70;0.70;;;23.40;50.40;;;;;;222903;1264;25210;-52
2023/06/04 16:05:40;;;;;;;0.70;0.70;;;23.40;50.50;;;;;;222572;1268;22853;-55
2023/06/04 16:10:46;;;;;;;0.80;0.80;;;23.40;50.90;;;;;;222539;1268;22519;-55
2023/06/04 16:15:51;;;;;;;0.60;0.60;;;23.30;50.60;;;;;;222203;1268;24264;-52
2023/06/04 16:20:55;;;;;;;0.80;0.80;;;23.30;50.50;;;;;;222374;1268;24192;-55
2023/06/04 16:25:59;;;;;;;0.80;0.80;;;23.30;50.60;;;;;;222341;1268;23898;-55
2023/06/04 16:31:04;;;;;;;0.60;0.60;;;23.30;50.60;;;;;;222512;1245;22598;-51
2023/06/04 16:36:08;;;;;;;0.70;0.60;;;23.30;50.50;;;;;;222512;1268;22639;-51
2023/06/04 16:41:13;;;;;;;0.60;0.60;;;23.30;50.70;;;;;;222807;1268;26596;-51
2023/06/04 16:46:17;;;;;;;0.50;0.50;;;23.40;50.40;;;;;;222599;1266;22514;-54
2023/06/04 16:51:22;;;;;;;0.50;0.50;;;23.40;50.50;;;;;;222458;1268;22523;-57
2023/06/04 16:56:27;;;;;;;0.50;0.50;;;23.30;50.50;;;;;;222718;1268;24029;-55
2023/06/04 17:01:31;;;;;;;0.70;0.70;;;23.30;50.60;;;;;;222405;1268;22509;-51
2023/06/04 17:06:35;;;;;;;0.50;0.50;;;23.30;50.50;;;;;;222416;1268;24315;-52
2023/06/04 17:11:40;;;;;;;0.60;0.60;;;23.30;50.60;;;;;;222681;1268;22586;-55
2023/06/04 17:16:45;;;;;;;0.80;0.70;;;23.30;50.60;;;;;;222661;1267;23886;-53
2023/06/04 17:21:49;;;;;;;0.80;0.80;;;23.30;50.60;;;;;;222491;1268;24216;-51
2023/06/04 17:26:55;;;;;;;0.50;0.50;;;23.30;51.30;;;;;;222632;1268;22518;-54
2023/06/04 17:32:00;;;;;;;0.70;0.70;;;23.30;50.70;;;;;;222637;1268;22621;-53
2023/06/04 17:37:05;;;;;;;0.50;0.50;;;23.30;51.00;;;;;;222433;1268;22519;-53
2023/06/04 17:42:10;;;;;;;0.70;0.70;;;23.20;51.00;;;;;;222427;1268;24241;-56
2023/06/04 17:47:15;;;;;;;0.70;0.60;;;23.30;50.60;;;;;;222704;1268;22518;-54
2023/06/04 17:52:20;;;;;;;0.70;0.70;;;23.20;50.90;;;;;;222503;1268;24218;-54
2023/06/04 17:57:25;;;;;;;0.50;0.50;;;23.20;50.60;;;;;;222458;1269;24183;-54
2023/06/04 18:02:31;;;;;;;1.40;0.80;;;23.30;50.60;;;;;;222489;1268;22518;-52
2023/06/04 18:07:35;;;;;;;0.70;0.60;;;23.20;50.90;;;;;;222309;1262;23900;-51
2023/06/04 18:12:40;;;;;;;0.50;0.50;;;23.20;50.50;;;;;;222656;1259;25261;-55
2023/06/04 18:17:45;;;;;;;0.70;0.70;;;23.20;50.30;;;;;;222659;1268;24300;-52
2023/06/04 18:22:49;;;;;;;0.80;0.80;;;23.30;50.40;;;;;;222708;1268;22543;-53
2023/06/04 18:27:54;;;;;;;0.50;0.50;;;23.30;50.40;;;;;;222664;1268;22507;-55
2023/06/04 18:32:58;;;;;;;0.30;0.30;;;23.20;50.40;;;;;;222689;1268;22694;-51
2023/06/04 18:38:04;;;;;;;0.50;0.50;;;23.20;50.70;;;;;;222500;1268;22507;-51
2023/06/04 18:43:08;;;;;;;0.50;0.50;;;23.20;51.00;;;;;;222662;1268;24256;-54
2023/06/04 18:48:12;;;;;;;0.50;0.50;;;23.20;50.60;;;;;;222647;1268;22584;-53
2023/06/04 18:53:20;;;;;;;0.90;0.80;;;23.20;50.70;;;;;;222684;1268;25211;-54
2023/06/04 18:58:24;;;;;;;0.70;0.70;;;23.20;50.80;;;;;;222521;1268;23716;-56
2023/06/04 19:03:30;;;;;;;0.60;0.60;;;23.20;50.70;;;;;;222623;1266;22515;-53
2023/06/04 19:08:35;;;;;;;0.50;0.50;;;23.20;50.80;;;;;;222620;1268;22512;-56
2023/06/04 19:13:40;;;;;;;0.60;0.60;;;23.10;50.80;;;;;;222650;1267;22505;-53
2023/06/04 19:18:44;;;;;;;0.50;0.50;;;23.10;50.80;;;;;;222846;1266;22515;-52
2023/06/04 19:23:49;;;;;;;0.60;0.60;;;23.10;51.10;;;;;;222543;1268;24227;-52
2023/06/04 19:28:54;;;;;;;0.60;0.60;;;23.10;50.70;;;;;;222626;1266;24148;-53
2023/06/04 19:33:59;;;;;;;0.70;0.70;;;23.10;50.80;;;;;;222455;1269;24203;-51
2023/06/04 19:39:04;;;;;;;0.60;0.60;;;23.10;50.80;;;;;;222178;1269;22545;-52
2023/06/04 19:44:09;;;;;;;0.60;0.60;;;23.10;51.20;;;;;;221958;1269;22695;-51
2023/06/04 19:49:15;;;;;;;0.60;0.60;;;23.10;50.80;;;;;;222078;1267;26490;-51
2023/06/04 19:54:19;;;;;;;0.60;0.60;;;23.10;50.90;;;;;;222399;1269;22519;-52
2023/06/04 19:59:24;;;;;;;0.50;0.50;;;23.10;51.30;;;;;;222382;1269;22540;-50
2023/06/04 20:04:29;;;;;;;0.80;0.80;;;23.10;51.00;;;;;;222290;1269;22554;-52
2023/06/04 20:09:33;;;;;;;0.50;0.50;;;23.00;51.30;;;;;;222508;1268;22514;-51
2023/06/04 20:14:38;;;;;;;0.50;0.50;;;23.00;51.40;;;;;;222178;1268;22611;-53
2023/06/04 20:19:42;;;;;;;0.40;0.40;;;23.00;51.20;;;;;;222153;1269;23910;-50
2023/06/04 20:24:46;;;;;;;0.60;0.60;;;23.00;51.20;;;;;;222512;1269;22582;-50
2023/06/04 20:29:50;;;;;;;0.60;0.60;;;22.90;51.50;;;;;;222080;1260;22687;-51
2023/06/04 20:34:55;;;;;;;0.70;0.70;;;22.90;51.20;;;;;;222541;1264;24243;-52
2023/06/04 20:39:59;;;;;;;0.70;0.70;;;22.90;51.20;;;;;;222561;1268;24182;-52
2023/06/04 20:45:04;;;;;;;0.60;0.60;;;22.90;51.20;;;;;;222214;1268;22511;-52
2023/06/04 20:50:10;;;;;;;0.50;0.50;;;22.90;51.20;;;;;;222603;1268;22504;-53
2023/06/04 20:55:16;;;;;;;0.70;0.70;;;22.90;51.20;;;;;;222947;1268;24305;-55
2023/06/04 21:00:20;;;;;;;0.60;0.60;;;22.90;51.20;;;;;;222497;1268;25300;-51
2023/06/04 21:05:24;;;;;;;0.50;0.50;;;22.90;51.30;;;;;;222310;1268;22626;-53
2023/06/04 21:10:29;;;;;;;0.60;0.60;;;22.90;51.20;;;;;;222481;1268;23722;-52
2023/06/04 21:15:33;;;;;;;0.40;0.40;;;22.90;51.20;;;;;;222478;1268;25211;-48
2023/06/04 21:20:37;;;;;;;0.50;0.50;;;22.80;51.20;;;;;;222485;1268;22569;-53
2023/06/04 21:25:43;;;;;;;0.60;0.60;;;22.90;51.30;;;;;;222381;1268;22508;-54
2023/06/04 21:30:47;;;;;;;0.50;0.50;;;22.90;51.30;;;;;;222454;1264;25600;-50
2023/06/04 21:35:51;;;;;;;0.60;0.60;;;22.90;51.30;;;;;;222340;1269;24234;-53
2023/06/04 21:40:55;;;;;;;0.50;0.40;;;22.90;51.30;;;;;;222268;1269;22658;-50
2023/06/04 21:45:59;;;;;;;1.00;0.50;;;22.90;51.40;;;;;;222539;1269;22622;-52
2023/06/04 21:51:03;;;;;;;0.50;0.50;;;22.80;51.30;;;;;;222150;1269;23441;-52
2023/06/04 21:56:07;;;;;;;0.80;0.60;;;22.80;51.40;;;;;;222306;1268;22627;-52
2023/06/04 22:01:11;;;;;;;0.60;0.60;;;22.80;51.40;;;;;;222138;1268;22644;-48
2023/06/04 22:06:18;;;;;;;0.50;0.50;;;22.70;51.40;;;;;;222289;1269;22518;-53
2023/06/04 22:11:23;;;;;;;0.70;0.70;;;22.80;51.50;;;;;;222341;1269;22504;-53
2023/06/04 22:16:27;;;;;;;0.60;0.60;;;22.80;51.50;;;;;;222115;1269;24300;-55
2023/06/04 22:21:31;;;;;;;0.60;0.60;;;22.70;51.40;;;;;;222178;1269;22620;-49
2023/06/04 22:26:35;;;;;;;0.60;0.60;;;22.70;51.40;;;;;;222419;1269;22521;-56
2023/06/04 22:31:41;;;;;;;0.80;0.70;;;22.70;51.40;;;;;;222442;1260;25603;-53
2023/06/04 22:36:45;;;;;;;0.50;0.50;;;22.70;51.50;;;;;;222566;1268;22517;-54
2023/06/04 22:41:49;;;;;;;0.80;0.80;;;22.70;51.50;;;;;;222383;1268;22629;-55
2023/06/04 22:46:53;;;;;;;1.80;0.60;;;22.70;51.50;;;;;;222589;1268;22518;-52
2023/06/04 22:51:57;;;;;;;0.70;0.70;;;22.70;51.50;;;;;;222373;1264;22515;-53
2023/06/04 22:57:01;;;;;;;0.60;0.60;;;22.70;51.50;;;;;;222458;1268;22889;-53
2023/06/04 23:02:05;;;;;;;0.70;0.70;;;22.60;51.50;;;;;;221984;1269;23913;-54
2023/06/04 23:07:10;;;;;;;0.40;0.40;;;22.60;51.50;;;;;;222342;1269;22520;-52
2023/06/04 23:12:14;;;;;;;0.60;0.60;;;22.60;51.60;;;;;;222286;1263;23970;-51
2023/06/04 23:17:18;;;;;;;0.70;0.70;;;22.60;51.60;;;;;;222280;1269;22707;-51
2023/06/04 23:22:22;;;;;;;0.70;0.70;;;22.60;51.60;;;;;;222000;1263;23927;-54
2023/06/04 23:27:27;;;;;;;0.60;0.60;;;22.60;51.50;;;;;;221984;1269;24544;-52
2023/06/04 23:32:31;;;;;;;0.70;0.70;;;22.60;51.50;;;;;;221914;1269;25424;-50
2023/06/04 23:37:35;;;;;;;0.60;0.60;;;22.60;52.10;;;;;;221852;1270;22550;-51
2023/06/04 23:42:39;;;;;;;0.60;0.60;;;22.60;51.50;;;;;;221852;1267;22543;-52
2023/06/04 23:47:44;;;;;;;0.60;0.60;;;22.60;51.50;;;;;;221765;1270;23491;-53
2023/06/04 23:52:48;;;;;;;0.80;0.60;;;22.60;51.50;;;;;;222108;1270;22546;-53
2023/06/04 23:57:52;;;;;;;0.60;0.60;;;22.60;51.80;;;;;;221845;1269;23514;-50
